Time;durP1;ratioP1;P1;durP2;ratioP2;P2;SDS_P1;SDS_P2;PMS_P1;PMS_P2;Temp;Humidity;BMP_temperature;BMP_pressure;BME280_temperature;BME280_humidity;BME280_pressure;Samples;Min_cycle;Max_cycle;Signal;HPM_P1;HPM_P2
2023/05/11 00:00:13;;;;;;;8.50;3.00;;;;;;;10.74;39.26;100337.17;105790;1256;59759;-68
2023/05/11 00:03:13;;;;;;;7.30;3.20;;;;;;;10.70;38.99;100334.05;105789;1256;59630;-67
2023/05/11 00:06:02;;;;;;;9.90;3.30;;;;;;;10.66;39.23;100331.20;105511;1256;74030;-66
2023/05/11 00:08:50;;;;;;;7.90;2.70;;;;;;;10.62;39.38;100333.63;105484;1256;67101;-69
2023/05/11 00:11:38;;;;;;;10.70;3.10;;;;;;;10.58;39.49;100330.37;105370;1261;72701;-68
2023/05/11 00:14:26;;;;;;;10.50;3.20;;;;;;;10.52;39.51;100330.76;105441;1256;59791;-66
2023/05/11 00:17:18;;;;;;;8.50;3.30;;;;;;;10.48;39.70;100329.61;105570;1256;60283;-67
2023/05/11 00:20:09;;;;;;;11.00;2.90;;;;;;;10.44;39.70;100332.56;105449;1258;72808;-65
2023/05/11 00:22:57;;;;;;;10.30;3.40;;;;;;;10.40;39.92;100328.64;105527;1260;66256;-68
2023/05/11 00:25:45;;;;;;;9.30;3.00;;;;;;;10.36;40.03;100332.64;105366;1256;72435;-66
2023/05/11 00:28:33;;;;;;;13.80;3.50;;;;;;;10.32;40.13;100330.75;105494;1257;59647;-67
2023/05/11 00:31:25;;;;;;;8.00;3.40;;;;;;;10.28;40.25;100329.50;105396;1259;60377;-68
2023/05/11 00:34:17;;;;;;;7.40;3.10;;;;;;;10.22;40.30;100333.55;105235;1259;73350;-69
2023/05/11 00:37:05;;;;;;;9.00;3.50;;;;;;;10.18;40.49;100331.23;105173;1259;66895;-68
2023/05/11 00:39:55;;;;;;;7.20;2.90;;;;;;;10.15;40.37;100334.96;105511;1264;72123;-68
2023/05/11 00:42:46;;;;;;;8.10;3.10;;;;;;;10.12;40.40;100335.73;105543;1263;59705;-67
2023/05/11 00:45:37;;;;;;;8.70;3.20;;;;;;;10.08;40.47;100331.10;105342;1260;59602;-67
2023/05/11 00:48:26;;;;;;;8.00;2.70;;;;;;;10.02;40.83;100333.75;105320;1268;72479;-67
2023/05/11 00:51:15;;;;;;;8.70;2.80;;;;;;;9.98;40.98;100332.48;105324;1264;68067;-68
2023/05/11 00:54:04;;;;;;;10.90;3.00;;;;;;;9.94;41.14;100332.94;105078;1266;72790;-67
2023/05/11 00:56:52;;;;;;;10.80;3.10;;;;;;;9.90;41.25;100333.59;104580;1266;59825;-68
2023/05/11 00:59:41;;;;;;;9.40;3.20;;;;;;;9.85;41.43;100330.71;104794;1267;61345;-67
2023/05/11 01:02:36;;;;;;;9.20;2.90;;;;;;;9.82;41.51;100331.29;104855;1264;73765;-69
2023/05/11 01:05:40;;;;;;;12.70;3.30;;;;;;;9.76;41.49;100329.94;105195;1264;66601;-69
2023/05/11 01:08:54;;;;;;;9.20;3.00;;;;;;;9.71;41.49;100332.75;105029;1267;71427;-70
2023/05/11 01:11:55;;;;;;;8.80;3.00;;;;;;;9.66;41.61;100337.20;105314;1268;59519;-69
2023/05/11 01:14:57;;;;;;;8.40;2.70;;;;;;;9.62;41.86;100329.86;104915;1273;59374;-71
2023/05/11 01:17:53;;;;;;;7.60;3.00;;;;;;;9.55;42.22;100326.95;104956;1265;73599;-69
2023/05/11 01:20:47;;;;;;;8.00;2.90;;;;;;;9.54;42.15;100333.20;105208;1264;66625;-72
2023/05/11 01:23:53;;;;;;;9.40;3.10;;;;;;;9.50;42.29;100330.81;105151;1260;71954;-70
2023/05/11 01:27:17;;;;;;;10.40;3.50;;;;;;;9.44;42.32;100339.73;104971;1256;1003562;-69
2023/05/11 01:30:48;;;;;;;10.30;3.20;;;;;;;9.37;42.62;100334.89;105479;1256;60186;-69
2023/05/11 01:33:43;;;;;;;8.80;3.20;;;;;;;9.30;42.99;100338.96;105251;1269;73114;-70
2023/05/11 01:36:41;;;;;;;8.60;3.30;;;;;;;9.23;43.31;100343.68;104560;1264;1002890;-71
2023/05/11 01:40:21;;;;;;;10.90;3.50;;;;;;;9.16;43.50;100347.00;105157;1263;72929;-70
2023/05/11 01:43:19;;;;;;;7.50;3.00;;;;;;;9.06;44.21;100346.39;104985;1267;59898;-70
2023/05/11 01:46:11;;;;;;;9.40;3.60;;;;;;;8.98;44.34;100347.10;104710;1265;59637;-70
2023/05/11 01:49:04;;;;;;;9.50;3.20;;;;;;;8.90;44.73;100345.14;105040;1267;71821;-70
2023/05/11 01:51:54;;;;;;;9.70;3.80;;;;;;;8.83;44.74;100346.86;104939;1264;67867;-70
2023/05/11 01:54:43;;;;;;;9.50;3.30;;;;;;;8.76;44.93;100351.89;104864;1268;72796;-70
2023/05/11 01:57:35;;;;;;;7.60;3.20;;;;;;;8.69;45.22;100348.11;105040;1263;59731;-68
2023/05/11 02:00:23;;;;;;;8.60;3.70;;;;;;;8.62;45.54;100349.43;104929;1264;60716;-69
2023/05/11 02:03:15;;;;;;;10.30;3.70;;;;;;;8.57;45.76;100354.41;104794;1266;73757;-69
2023/05/11 02:06:08;;;;;;;8.30;3.30;;;;;;;8.52;45.71;100356.10;105141;1267;66836;-69
2023/05/11 02:08:59;;;;;;;10.90;3.30;;;;;;;8.47;45.86;100354.84;105418;1262;72471;-68
2023/05/11 02:11:50;;;;;;;9.10;3.80;;;;;;;8.42;46.12;100355.64;105427;1264;59724;-68
2023/05/11 02:14:40;;;;;;;7.80;3.50;;;;;;;8.40;46.31;100359.33;105562;1256;59590;-67
2023/05/11 02:17:29;;;;;;;7.90;2.90;;;;;;;8.38;46.22;100360.86;105556;1260;72253;-69
2023/05/11 02:20:19;;;;;;;11.60;3.50;;;;;;;8.34;46.17;100362.88;105520;1256;66552;-70
2023/05/11 02:23:09;;;;;;;8.90;3.10;;;;;;;8.31;46.43;100364.65;105566;1256;72373;-69
2023/05/11 02:25:58;;;;;;;8.30;3.50;;;;;;;8.29;46.48;100367.27;105389;1264;59692;-68
2023/05/11 02:28:46;;;;;;;9.40;3.70;;;;;;;8.27;46.44;100364.38;105565;1256;60379;-70
2023/05/11 02:31:41;;;;;;;11.90;3.40;;;;;;;8.26;46.48;100364.42;105717;1260;72828;-69
2023/05/11 02:34:40;;;;;;;8.90;3.20;;;;;;;8.25;46.52;100363.10;105589;1260;68703;-68
2023/05/11 02:37:32;;;;;;;10.50;3.20;;;;;;;8.23;46.44;100365.67;105563;1260;72790;-70
2023/05/11 02:40:29;;;;;;;8.50;3.70;;;;;;;8.21;46.55;100365.11;105598;1264;59715;-69
2023/05/11 02:43:24;;;;;;;9.70;3.20;;;;;;;8.22;46.46;100368.61;106177;1258;59156;-70
2023/05/11 02:46:22;;;;;;;9.70;3.20;;;;;;;8.22;46.38;100365.76;106262;1261;71620;-70
2023/05/11 02:49:13;;;;;;;7.10;3.20;;;;;;;8.20;46.34;100367.45;106309;1256;66718;-69
2023/05/11 02:52:02;;;;;;;12.10;3.10;;;;;;;8.19;46.52;100367.32;105975;1256;72818;-71
2023/05/11 02:54:52;;;;;;;8.20;3.10;;;;;;;8.19;46.41;100368.41;105731;1262;59636;-69
2023/05/11 02:57:42;;;;;;;9.00;3.60;;;;;;;8.18;46.55;100369.19;105771;1258;60224;-72
2023/05/11 03:00:32;;;;;;;9.20;3.60;;;;;;;8.16;46.55;100367.19;105602;1256;73067;-72
2023/05/11 03:03:21;;;;;;;10.20;3.70;;;;;;;8.14;46.82;100374.21;105461;1257;66418;-71
2023/05/11 03:06:10;;;;;;;8.60;3.10;;;;;;;8.13;46.85;100376.05;105477;1256;72824;-70
2023/05/11 03:09:00;;;;;;;8.40;3.20;;;;;;;8.11;46.74;100375.64;105652;1256;59681;-69
2023/05/11 03:11:50;;;;;;;8.50;3.00;;;;;;;8.11;46.78;100375.29;105578;1256;61420;-69
2023/05/11 03:14:39;;;;;;;7.70;3.60;;;;;;;8.10;46.75;100374.99;105509;1260;72818;-70
2023/05/11 03:17:29;;;;;;;8.80;3.50;;;;;;;8.08;46.75;100372.31;104597;1259;1003552;-72
2023/05/11 03:20:19;;;;;;;8.80;3.40;;;;;;;8.06;46.82;100377.19;105496;1261;71509;-72
2023/05/11 03:23:11;;;;;;;9.70;3.50;;;;;;;8.08;46.74;100378.64;105422;1264;59769;-72
2023/05/11 03:26:01;;;;;;;10.80;3.80;;;;;;;8.09;46.72;100384.27;105387;1259;60246;-69
2023/05/11 03:28:51;;;;;;;11.80;3.40;;;;;;;8.09;46.93;100385.30;106225;1257;73133;-70
2023/05/11 03:31:39;;;;;;;10.50;3.50;;;;;;;8.13;46.91;100385.43;106167;1259;68087;-70
2023/05/11 03:34:27;;;;;;;10.40;3.40;;;;;;;8.15;46.67;100385.58;107541;1259;72824;-70
2023/05/11 03:37:18;;;;;;;10.80;4.00;;;;;;;8.17;46.71;100386.70;105353;1264;59562;-71
2023/05/11 03:40:09;;;;;;;8.20;3.60;;;;;;;8.22;46.47;100389.46;105324;1257;59641;-70
2023/05/11 03:43:10;;;;;;;8.00;3.50;;;;;;;8.24;46.38;100388.23;105521;1257;71784;-71
2023/05/11 03:45:59;;;;;;;10.00;3.70;;;;;;;8.28;46.51;100389.95;105232;1263;66921;-74
2023/05/11 03:48:50;;;;;;;8.10;3.50;;;;;;;8.31;46.31;100393.29;105261;1260;72601;-72
2023/05/11 03:51:42;;;;;;;8.20;3.30;;;;;;;8.37;46.06;100396.48;105528;1259;59526;-72
2023/05/11 03:54:32;;;;;;;8.40;3.70;;;;;;;8.43;45.80;100395.21;105376;1259;60421;-71
2023/05/11 03:57:24;;;;;;;11.00;3.40;;;;;;;8.48;45.36;100396.85;105496;1262;73111;-73
2023/05/11 04:00:13;;;;;;;9.00;3.30;;;;;;;8.54;45.36;100395.95;105300;1260;68178;-72
2023/05/11 04:03:07;;;;;;;10.20;3.50;;;;;;;8.61;45.17;100397.11;105443;1263;72448;-72
2023/05/11 04:05:55;;;;;;;9.00;3.50;;;;;;;8.67;44.99;100395.45;105623;1259;59622;-70
2023/05/11 04:08:44;;;;;;;8.10;3.10;;;;;;;8.74;44.95;100397.13;105532;1261;60134;-70
2023/05/11 04:11:38;;;;;;;9.20;3.10;;;;;;;8.82;44.74;100401.25;105412;1262;72788;-69
2023/05/11 04:14:28;;;;;;;8.60;3.00;;;;;;;8.89;44.69;100398.86;106820;1262;67873;-68
2023/05/11 04:17:16;;;;;;;7.60;3.10;;;;;;;8.95;44.58;100397.21;105600;1258;72717;-69
2023/05/11 04:20:08;;;;;;;10.80;3.40;;;;;;;9.04;44.49;100400.34;105620;1257;59695;-69
2023/05/11 04:22:56;;;;;;;8.30;3.20;;;;;;;9.11;44.22;100398.80;105626;1256;61410;-69
2023/05/11 04:25:44;;;;;;;8.40;3.20;;;;;;;9.18;43.95;100400.08;105691;1258;72281;-69
2023/05/11 04:28:35;;;;;;;9.70;3.40;;;;;;;9.26;43.96;100395.86;105609;1254;66417;-68
2023/05/11 04:31:23;;;;;;;9.20;3.20;;;;;;;9.35;43.65;100396.34;105828;1254;71431;-68
2023/05/11 04:34:11;;;;;;;10.00;3.40;;;;;;;9.43;43.40;100396.52;105603;1254;59733;-69
2023/05/11 04:36:59;;;;;;;7.80;3.20;;;;;;;9.50;43.07;100402.35;108073;1256;59297;-67
2023/05/11 04:39:48;;;;;;;9.30;3.10;;;;;;;9.61;43.09;100407.31;105655;1261;71412;-68
2023/05/11 04:42:37;;;;;;;8.50;3.00;;;;;;;9.72;42.94;100408.50;107514;1256;66654;-67
2023/05/11 04:45:30;;;;;;;8.20;3.00;;;;;;;9.84;42.39;100413.39;105590;1262;73213;-67
2023/05/11 04:48:18;;;;;;;8.30;3.20;;;;;;;9.94;42.36;100414.65;105643;1260;59756;-65
2023/05/11 04:51:08;;;;;;;9.60;3.40;;;;;;;10.04;41.55;100416.83;105370;1256;60413;-67
2023/05/11 04:54:03;;;;;;;8.20;3.00;;;;;;;10.15;41.59;100416.38;105403;1260;73338;-67
2023/05/11 04:56:51;;;;;;;8.30;2.90;;;;;;;10.26;41.09;100416.52;105386;1264;66862;-66
2023/05/11 04:59:40;;;;;;;8.20;3.10;;;;;;;10.36;40.59;100423.10;105576;1263;71308;-70
2023/05/11 05:02:28;;;;;;;9.30;3.10;;;;;;;10.48;40.19;100425.42;105602;1256;59605;-70
2023/05/11 05:05:17;;;;;;;6.80;3.00;;;;;;;10.69;39.96;100422.52;106135;1256;60490;-79
2023/05/11 05:08:06;;;;;;;7.00;3.00;;;;;;;10.99;39.35;100416.98;106077;1256;73100;-78
2023/05/11 05:10:57;;;;;;;7.80;3.20;;;;;;;11.81;38.48;100420.05;106140;1259;66958;-78
2023/05/11 05:13:46;;;;;;;7.80;3.10;;;;;;;13.16;35.14;100420.71;105630;1270;72044;-79
2023/05/11 05:16:35;;;;;;;8.60;3.30;;;;;;;14.64;33.08;100417.92;105230;1264;59727;-78
2023/05/11 05:19:27;;;;;;;8.10;3.10;;;;;;;15.97;30.87;100414.86;105267;1271;59681;-77
2023/05/11 05:22:15;;;;;;;8.70;3.20;;;;;;;17.09;28.82;100416.77;105250;1264;73100;-77
2023/05/11 05:25:04;;;;;;;7.30;2.90;;;;;;;18.18;27.79;100420.09;105236;1264;66621;-78
2023/05/11 05:27:53;;;;;;;11.30;3.00;;;;;;;19.18;26.28;100423.13;105248;1264;72814;-76
2023/05/11 05:30:41;;;;;;;9.10;3.00;;;;;;;19.93;25.32;100416.33;106083;1264;59722;-77
2023/05/11 05:33:32;;;;;;;8.30;2.90;;;;;;;20.68;24.40;100416.56;105968;1264;61395;-76
2023/05/11 05:36:20;;;;;;;7.30;2.60;;;;;;;21.11;23.31;100416.61;105958;1264;72877;-77
2023/05/11 05:39:11;;;;;;;7.10;2.60;;;;;;;21.48;23.01;100415.73;105547;1268;68747;-77
2023/05/11 05:42:01;;;;;;;7.60;2.80;;;;;;;22.02;22.40;100420.21;105179;1270;72541;-75
2023/05/11 05:44:53;;;;;;;7.90;2.90;;;;;;;22.71;21.81;100420.80;105113;1267;213061;-77
2023/05/11 05:47:42;;;;;;;10.00;3.20;;;;;;;22.89;21.39;100424.92;105475;1261;60718;-77
2023/05/11 05:50:31;;;;;;;7.60;2.70;;;;;;;23.05;20.79;100423.29;105287;1259;73027;-77
2023/05/11 05:53:21;;;;;;;7.40;2.70;;;;;;;23.40;20.40;100430.95;105512;1265;65618;-75
2023/05/11 05:56:10;;;;;;;8.00;2.70;;;;;;;23.72;20.25;100420.02;106416;1256;71177;-78
2023/05/11 05:59:00;;;;;;;7.20;2.70;;;;;;;24.24;19.80;100416.67;105683;1262;59538;-76
2023/05/11 06:01:52;;;;;;;8.60;3.00;;;;;;;24.49;19.56;100414.45;105602;1256;59761;-76
2023/05/11 06:04:41;;;;;;;8.30;2.80;;;;;;;24.87;19.09;100417.46;105747;1263;72820;-77
2023/05/11 06:07:29;;;;;;;8.00;2.70;;;;;;;25.36;18.98;100422.64;105342;1261;68135;-79
2023/05/11 06:10:19;;;;;;;8.30;2.70;;;;;;;25.88;18.18;100419.84;105304;1267;72421;-75
2023/05/11 06:13:08;;;;;;;8.50;2.60;;;;;;;25.83;17.87;100435.11;105351;1260;59690;-77
2023/05/11 06:15:59;;;;;;;8.40;2.50;;;;;;;25.73;18.01;100426.68;105276;1260;60414;-78
2023/05/11 06:18:51;;;;;;;7.10;2.50;;;;;;;25.74;18.01;100426.23;105227;1264;73191;-76
2023/05/11 06:21:41;;;;;;;10.80;3.00;;;;;;;25.53;17.97;100428.25;105403;1261;67821;-77
2023/05/11 06:24:30;;;;;;;7.10;2.80;;;;;;;25.76;18.00;100433.48;105316;1262;71181;-79
2023/05/11 06:27:20;;;;;;;10.60;2.80;;;;;;;25.78;17.71;100434.98;105374;1262;59819;-78
2023/05/11 06:30:09;;;;;;;7.10;2.40;;;;;;;25.73;17.57;100432.05;105388;1263;60240;-77
2023/05/11 06:32:58;;;;;;;8.00;2.70;;;;;;;26.03;17.72;100434.13;105381;1264;72216;-75
2023/05/11 06:35:47;;;;;;;9.70;2.40;;;;;;;25.99;17.48;100436.86;105647;1260;68084;-75
2023/05/11 06:38:37;;;;;;;7.30;2.70;;;;;;;26.40;17.15;100432.39;105516;1257;71365;-75
2023/05/11 06:41:26;;;;;;;7.80;2.60;;;;;;;26.74;16.88;100431.71;105690;1262;59547;-77
2023/05/11 06:44:15;;;;;;;9.70;2.70;;;;;;;27.39;16.83;100435.89;105896;1262;59620;-77
2023/05/11 06:47:05;;;;;;;8.30;2.80;;;;;;;27.50;16.38;100440.10;105564;1256;71894;-79
2023/05/11 06:49:54;;;;;;;7.90;2.40;;;;;;;27.59;16.29;100439.86;105663;1256;66506;-75
2023/05/11 06:52:43;;;;;;;9.40;2.60;;;;;;;27.55;16.02;100442.13;105801;1264;72786;-77
2023/05/11 06:55:31;;;;;;;8.10;2.50;;;;;;;27.78;16.18;100441.29;105684;1256;59673;-77
2023/05/11 06:58:20;;;;;;;8.70;2.60;;;;;;;28.21;15.96;100435.69;106137;1259;59667;-78
2023/05/11 07:01:13;;;;;;;9.50;2.60;;;;;;;28.20;15.70;100433.17;106204;1256;73101;-77
2023/05/11 07:04:01;;;;;;;7.80;2.40;;;;;;;28.61;15.97;100435.41;105818;1257;66965;-78
2023/05/11 07:06:50;;;;;;;8.60;2.80;;;;;;;28.87;15.71;100434.12;105530;1256;71353;-77
2023/05/11 07:09:38;;;;;;;8.00;2.50;;;;;;;28.46;15.81;100438.39;105725;1256;59722;-80
2023/05/11 07:12:29;;;;;;;9.20;2.60;;;;;;;28.08;15.93;100437.50;105863;1256;60242;-77
2023/05/11 07:15:17;;;;;;;8.90;2.70;;;;;;;28.34;15.79;100432.42;105852;1259;72978;-78
2023/05/11 07:18:05;;;;;;;11.70;3.70;;;;;;;28.39;16.07;100436.41;105712;1259;67924;-78
2023/05/11 07:20:53;;;;;;;9.30;2.60;;;;;;;28.79;16.19;100437.58;105756;1263;71874;-79
2023/05/11 07:23:43;;;;;;;7.80;2.30;;;;;;;28.73;15.95;100438.52;105689;1254;59640;-78
2023/05/11 07:26:32;;;;;;;9.40;2.30;;;;;;;28.76;15.97;100443.07;105589;1258;59539;-79
2023/05/11 07:29:21;;;;;;;8.00;2.50;;;;;;;28.60;15.83;100445.98;105600;1256;71866;-76
2023/05/11 07:32:09;;;;;;;8.90;2.60;;;;;;;28.36;15.97;100444.07;106162;1263;67124;-78
2023/05/11 07:34:57;;;;;;;8.50;2.70;;;;;;;28.26;15.93;100437.98;105767;1257;72452;-77
2023/05/11 07:37:45;;;;;;;8.50;2.90;;;;;;;28.40;16.16;100440.70;105626;1255;59615;-76
2023/05/11 07:40:34;;;;;;;10.70;2.70;;;;;;;28.65;15.92;100444.08;105669;1256;61381;-78
2023/05/11 07:43:24;;;;;;;7.20;2.20;;;;;;;28.84;15.67;100451.39;105725;1255;73172;-75
2023/05/11 07:46:12;;;;;;;7.60;2.30;;;;;;;28.18;16.06;100454.98;105888;1254;66316;-77
2023/05/11 07:49:04;;;;;;;10.00;2.50;;;;;;;28.09;15.99;100451.08;105912;1257;72735;-74
2023/05/11 07:52:07;;;;;;;11.40;2.50;;;;;;;27.98;16.12;100454.63;105944;1256;59639;-78
2023/05/11 07:54:56;;;;;;;9.10;2.50;;;;;;;27.93;16.40;100456.85;105870;1256;60355;-76
2023/05/11 07:57:44;;;;;;;8.10;2.20;;;;;;;28.09;16.49;100450.87;105714;1254;73066;-77
2023/05/11 08:00:33;;;;;;;8.20;2.50;;;;;;;28.07;16.08;100445.60;105704;1256;68069;-78
2023/05/11 08:03:21;;;;;;;7.70;2.00;;;;;;;28.31;15.78;100446.48;105785;1256;73267;-79
2023/05/11 08:06:11;;;;;;;7.60;2.30;;;;;;;28.11;15.86;100446.39;105455;1265;59616;-78
2023/05/11 08:09:00;;;;;;;6.60;2.20;;;;;;;28.18;16.42;100448.64;105325;1259;60239;-77
2023/05/11 08:11:48;;;;;;;8.20;2.40;;;;;;;28.49;16.00;100443.15;105279;1262;73846;-77
2023/05/11 08:14:37;;;;;;;11.50;2.40;;;;;;;28.55;15.89;100444.20;105242;1262;68084;-76
2023/05/11 08:17:25;;;;;;;8.20;2.30;;;;;;;28.20;16.14;100444.91;105422;1264;71092;-77
2023/05/11 08:20:14;;;;;;;8.30;2.00;;;;;;;27.42;16.41;100453.25;105320;1269;59320;-76
2023/05/11 08:23:02;;;;;;;6.30;2.00;;;;;;;27.55;16.68;100451.73;105322;1262;59518;-77
2023/05/11 08:25:54;;;;;;;8.90;2.20;;;;;;;27.60;16.23;100451.46;105306;1262;71840;-76
2023/05/11 08:28:42;;;;;;;6.60;2.10;;;;;;;27.38;16.29;100447.80;105210;1262;66660;-76
2023/05/11 08:31:31;;;;;;;7.10;2.00;;;;;;;27.56;16.21;100450.48;105332;1262;72932;-77
2023/05/11 08:34:22;;;;;;;8.00;2.30;;;;;;;27.39;15.97;100447.86;105571;1262;59907;-78
2023/05/11 08:37:12;;;;;;;7.80;2.10;;;;;;;27.61;15.94;100448.63;105253;1259;60826;-71
2023/05/11 08:40:00;;;;;;;10.40;2.20;;;;;;;28.04;15.71;100435.98;105285;1261;73112;-72
2023/05/11 08:42:54;;;;;;;9.60;2.10;;;;;;;27.93;15.62;100443.52;105647;1261;68148;-74
2023/05/11 08:45:48;;;;;;;8.70;2.50;;;;;;;27.09;15.64;100441.48;106017;1257;72478;-74
2023/05/11 08:48:37;;;;;;;6.60;2.00;;;;;;;26.56;15.99;100444.58;105711;1256;59711;-71
2023/05/11 08:51:27;;;;;;;6.30;1.80;;;;;;;26.57;15.97;100439.37;105849;1257;59506;-73
2023/05/11 08:54:16;;;;;;;7.00;2.00;;;;;;;26.97;15.91;100435.20;105550;1265;73073;-74
2023/05/11 08:57:05;;;;;;;8.20;2.40;;;;;;;27.70;15.66;100441.75;105432;1259;66750;-72
2023/05/11 08:59:54;;;;;;;8.60;2.30;;;;;;;27.78;15.05;100439.66;105360;1259;72715;-73
2023/05/11 09:02:43;;;;;;;5.90;2.00;;;;;;;27.49;15.01;100435.48;105226;1264;59612;-72
2023/05/11 09:05:32;;;;;;;7.90;2.20;;;;;;;26.83;15.19;100445.90;105269;1266;60244;-70
2023/05/11 09:08:22;;;;;;;10.40;2.30;;;;;;;26.97;15.12;100434.29;105851;1258;72946;-68
2023/05/11 09:11:11;;;;;;;8.00;1.80;;;;;;;27.09;15.03;100435.73;105541;1258;66612;-64
2023/05/11 09:13:59;;;;;;;8.00;2.00;;;;;;;26.17;15.60;100444.38;105908;1259;73253;-66
2023/05/11 09:16:48;;;;;;;7.30;2.10;;;;;;;26.11;15.78;100439.73;105543;1260;59587;-68
2023/05/11 09:19:56;;;;;;;6.20;2.00;;;;;;;25.79;16.08;100432.72;105577;1264;61919;-68
2023/05/11 09:22:46;;;;;;;6.00;1.80;;;;;;;25.99;16.18;100436.98;105289;1259;73902;-68
2023/05/11 09:25:38;;;;;;;6.60;1.80;;;;;;;26.63;15.84;100424.20;106175;1256;66292;-68
2023/05/11 09:28:28;;;;;;;8.10;2.20;;;;;;;26.83;15.33;100427.94;105948;1261;72807;-70
2023/05/11 09:31:47;;;;;;;7.20;1.80;;;;;;;26.96;15.23;100424.09;106883;1256;59816;-68
2023/05/11 09:34:36;;;;;;;8.20;2.20;;;;;;;27.61;14.67;100416.41;106084;1256;61381;-69
2023/05/11 09:37:29;;;;;;;7.80;1.90;;;;;;;28.33;13.84;100407.88;105722;1257;71479;-68
2023/05/11 09:40:19;;;;;;;7.30;1.70;;;;;;;28.77;13.68;100406.85;105644;1258;68189;-71
2023/05/11 09:43:16;;;;;;;6.90;1.90;;;;;;;28.83;13.71;100398.90;106234;1257;71477;-71
2023/05/11 09:46:06;;;;;;;7.10;1.90;;;;;;;29.06;13.43;100402.70;105719;1259;59728;-77
2023/05/11 09:49:02;;;;;;;7.20;1.70;;;;;;;28.00;13.73;100421.39;105877;1256;60815;-73
2023/05/11 09:52:00;;;;;;;6.60;1.80;;;;;;;28.42;13.77;100408.75;107730;1257;72944;-77
2023/05/11 09:54:52;;;;;;;7.10;1.80;;;;;;;28.92;13.62;100415.13;105896;1259;68534;-76
2023/05/11 09:57:42;;;;;;;8.90;2.00;;;;;;;28.53;13.11;100416.08;105699;1257;73588;-75
2023/05/11 10:00:31;;;;;;;6.50;1.90;;;;;;;28.22;13.61;100407.06;106200;1256;59626;-76
2023/05/11 10:03:20;;;;;;;6.50;1.80;;;;;;;27.95;13.54;100422.33;105763;1264;59740;-77
2023/05/11 10:06:08;;;;;;;6.70;2.00;;;;;;;27.43;13.96;100414.13;105696;1265;72856;-70
2023/05/11 10:09:06;;;;;;;7.60;2.00;;;;;;;27.64;14.19;100414.05;105548;1259;68566;-72
2023/05/11 10:11:56;;;;;;;7.30;1.80;;;;;;;27.94;14.21;100400.17;105669;1255;72722;-71
2023/05/11 10:14:44;;;;;;;9.00;3.10;;;;;;;28.31;14.07;100395.96;105937;1257;59632;-72
2023/05/11 10:17:34;;;;;;;9.10;2.00;;;;;;;28.78;13.71;100394.77;105585;1257;59993;-71
2023/05/11 10:20:26;;;;;;;8.20;1.90;;;;;;;29.21;13.23;100396.58;105487;1260;73023;-73
2023/05/11 10:23:18;;;;;;;6.60;1.90;;;;;;;29.45;12.92;100402.63;105820;1259;67970;-72
2023/05/11 10:26:06;;;;;;;7.00;1.90;;;;;;;29.28;12.92;100397.98;105491;1256;72523;-71
2023/05/11 10:28:55;;;;;;;6.90;1.90;;;;;;;29.28;13.57;100389.75;105556;1262;59606;-71
2023/05/11 10:31:44;;;;;;;5.80;1.80;;;;;;;28.88;13.12;100393.61;105716;1262;59626;-72
2023/05/11 10:34:33;;;;;;;7.50;1.90;;;;;;;28.53;13.63;100393.09;105477;1261;72882;-72
2023/05/11 10:37:21;;;;;;;5.80;1.50;;;;;;;28.62;13.67;100392.77;105444;1259;68184;-71
2023/05/11 10:40:10;;;;;;;7.40;2.00;;;;;;;28.26;13.37;100399.09;105557;1265;72433;-72
2023/05/11 10:43:05;;;;;;;6.40;1.70;;;;;;;27.99;13.45;100390.07;105578;1262;59670;-72
2023/05/11 10:46:28;;;;;;;6.30;1.90;;;;;;;28.29;13.32;100380.13;105604;1257;60043;-72
2023/05/11 10:50:16;;;;;;;9.50;2.40;;;;;;;28.11;13.45;100386.88;105788;1260;73168;-73
2023/05/11 10:53:35;;;;;;;7.20;1.80;;;;;;;27.98;13.42;100386.67;106186;1259;66239;-73
2023/05/11 10:56:46;;;;;;;7.40;2.00;;;;;;;28.08;13.43;100387.02;105667;1260;72732;-71
2023/05/11 11:00:09;;;;;;;6.90;2.50;;;;;;;28.61;13.40;100383.23;105607;1260;59810;-71
2023/05/11 11:03:11;;;;;;;6.10;2.20;;;;;;;28.49;13.13;100391.70;105612;1256;59856;-73
2023/05/11 11:05:59;;;;;;;8.70;1.90;;;;;;;28.44;13.37;100371.73;105642;1257;72849;-71
2023/05/11 11:09:03;;;;;;;7.80;1.80;;;;;;;28.65;13.35;100377.58;105510;1264;68026;-73
2023/05/11 11:12:08;;;;;;;7.30;1.90;;;;;;;27.80;13.53;100385.12;105212;1259;72980;-71
2023/05/11 11:14:57;;;;;;;7.40;1.80;;;;;;;27.15;14.14;100385.86;105414;1259;60302;-71
2023/05/11 11:17:47;;;;;;;8.70;1.90;;;;;;;26.35;14.75;100380.71;105318;1258;60468;-73
2023/05/11 11:20:47;;;;;;;7.20;1.80;;;;;;;25.79;15.34;100373.85;105209;1259;71834;-72
2023/05/11 11:23:48;;;;;;;10.00;2.30;;;;;;;25.61;15.71;100373.11;105223;1259;66444;-70
2023/05/11 11:26:49;;;;;;;7.40;1.90;;;;;;;25.16;15.96;100381.75;105515;1260;71340;-72
2023/05/11 11:29:39;;;;;;;6.20;2.00;;;;;;;25.06;15.85;100383.95;105600;1267;59801;-72
2023/05/11 11:32:27;;;;;;;6.40;2.10;;;;;;;24.77;16.43;100385.32;105650;1263;59759;-71
2023/05/11 11:35:44;;;;;;;6.70;2.30;;;;;;;24.77;16.91;100380.30;105275;1262;71924;-71
2023/05/11 11:38:53;;;;;;;9.20;2.80;;;;;;;24.77;17.03;100375.16;105392;1261;66706;-72
2023/05/11 11:41:43;;;;;;;10.90;2.40;;;;;;;24.14;17.26;100384.30;105268;1266;72685;-71
2023/05/11 11:44:36;;;;;;;8.50;2.10;;;;;;;23.52;17.58;100388.30;105498;1259;59621;-73
2023/05/11 11:47:25;;;;;;;7.40;2.20;;;;;;;22.99;18.35;100393.27;105894;1257;59765;-71
2023/05/11 11:50:14;;;;;;;7.90;2.20;;;;;;;22.58;18.77;100381.17;105553;1262;72835;-71
2023/05/11 11:53:03;;;;;;;7.20;2.20;;;;;;;22.22;19.47;100379.45;105620;1256;68203;-70
2023/05/11 11:55:54;;;;;;;7.50;2.40;;;;;;;21.71;20.06;100383.96;105565;1256;71434;-72
2023/05/11 11:58:43;;;;;;;9.80;3.70;;;;;;;21.28;20.69;100387.10;105676;1263;59551;-72
2023/05/11 12:01:38;;;;;;;7.40;2.50;;;;;;;21.01;20.99;100375.73;105666;1257;60045;-73
2023/05/11 12:04:38;;;;;;;7.70;2.10;;;;;;;20.74;21.41;100380.75;105463;1257;71545;-70
2023/05/11 12:07:32;;;;;;;7.60;2.40;;;;;;;20.62;21.53;100380.38;105571;1261;68038;-71
2023/05/11 12:10:22;;;;;;;8.30;2.10;;;;;;;20.36;21.74;100376.21;105684;1262;72413;-71
2023/05/11 12:13:11;;;;;;;10.40;2.20;;;;;;;20.08;22.06;100387.98;105510;1260;60111;-68
2023/05/11 12:16:14;;;;;;;9.60;2.40;;;;;;;19.91;22.53;100384.70;105694;1261;60037;-69
2023/05/11 12:19:03;;;;;;;7.20;2.40;;;;;;;19.89;22.55;100386.16;105540;1257;71813;-70
2023/05/11 12:21:51;;;;;;;6.90;1.90;;;;;;;19.47;22.77;100387.30;105566;1260;66584;-71
2023/05/11 12:24:42;;;;;;;7.20;2.10;;;;;;;19.38;23.09;100391.35;105542;1260;71076;-72
2023/05/11 12:27:30;;;;;;;6.70;2.30;;;;;;;19.28;23.43;100378.48;105542;1263;59726;-71
2023/05/11 12:30:27;;;;;;;10.10;2.70;;;;;;;19.47;23.77;100378.88;105592;1255;59602;-70
2023/05/11 12:33:15;;;;;;;9.40;2.00;;;;;;;19.64;23.48;100368.40;105958;1262;72726;-73
2023/05/11 12:36:03;;;;;;;7.70;2.00;;;;;;;19.70;22.95;100381.05;105582;1260;66419;-69
2023/05/11 12:38:51;;;;;;;7.70;2.10;;;;;;;19.65;22.96;100377.30;105504;1258;71403;-72
2023/05/11 12:41:43;;;;;;;7.10;1.70;;;;;;;19.72;23.22;100376.31;105611;1260;60059;-73
2023/05/11 12:44:32;;;;;;;6.90;1.90;;;;;;;19.75;22.72;100383.16;105594;1258;60844;-72
2023/05/11 12:47:20;;;;;;;9.00;2.30;;;;;;;19.60;22.84;100389.50;105505;1263;73370;-72
2023/05/11 12:50:10;;;;;;;8.90;2.40;;;;;;;19.44;22.88;100378.70;105524;1266;66844;-70
2023/05/11 12:53:18;;;;;;;7.90;2.40;;;;;;;19.48;23.03;100381.37;105352;1265;70584;-71
2023/05/11 12:56:07;;;;;;;10.20;2.20;;;;;;;19.41;23.02;100381.58;105187;1271;59788;-71
2023/05/11 12:58:55;;;;;;;8.70;2.00;;;;;;;19.21;23.05;100379.94;105015;1263;60387;-71
2023/05/11 13:01:43;;;;;;;6.40;2.20;;;;;;;18.96;23.29;100378.66;105124;1266;71858;-69
2023/05/11 13:04:33;;;;;;;11.50;2.80;;;;;;;18.94;23.84;100368.83;105127;1273;67915;-71
2023/05/11 13:07:27;;;;;;;6.80;2.20;;;;;;;18.99;23.79;100370.39;105090;1264;72806;-71
2023/05/11 13:10:22;;;;;;;7.90;2.30;;;;;;;18.99;23.60;100365.66;105396;1269;60011;-71